Time;durP1;ratioP1;P1;durP2;ratioP2;P2;SDS_P1;SDS_P2;PMS_P1;PMS_P2;Temp;Humidity;BMP_temperature;BMP_pressure;BME280_temperature;BME280_humidity;BME280_pressure;Samples;Min_cycle;Max_cycle;Signal;HPM_P1;HPM_P2
2023/07/01 00:02:04;;;;;;;0.20;0.20;;;;;;;;;;5019146;28;20518;-83
2023/07/01 00:04:31;;;;;;;0.20;0.20;;;;;;;;;;5019954;28;20116;-83
2023/07/01 00:06:57;;;;;;;0.10;0.10;;;;;;;;;;5016092;28;20054;-83
2023/07/01 00:09:24;;;;;;;0.85;0.85;;;;;;;;;;5016802;28;20043;-82
2023/07/01 00:11:51;;;;;;;0.10;0.10;;;;;;;;;;5019291;28;20054;-82
2023/07/01 00:14:17;;;;;;;0.10;0.10;;;;;;;;;;5019669;28;20058;-83
2023/07/01 00:16:44;;;;;;;0.22;0.20;;;;;;;;;;5018310;28;20046;-83
2023/07/01 00:19:10;;;;;;;0.20;0.20;;;;;;;;;;5016468;28;20054;-83
2023/07/01 00:21:37;;;;;;;0.20;0.20;;;;;;;;;;5032905;28;20038;-82
2023/07/01 00:24:03;;;;;;;0.20;0.20;;;;;;;;;;5018979;28;20529;-83
2023/07/01 00:26:30;;;;;;;0.20;0.20;;;;;;;;;;5013583;28;20447;-83
2023/07/01 00:28:56;;;;;;;0.20;0.20;;;;;;;;;;5018314;28;20082;-82
2023/07/01 00:31:23;;;;;;;0.10;0.10;;;;;;;;;;5020888;28;20082;-83
2023/07/01 00:33:49;;;;;;;0.10;0.10;;;;;;;;;;5018079;28;20062;-82
2023/07/01 00:36:16;;;;;;;0.10;0.10;;;;;;;;;;5019499;28;20046;-83
2023/07/01 00:38:42;;;;;;;0.10;0.10;;;;;;;;;;5017717;28;20142;-82
2023/07/01 00:41:08;;;;;;;0.10;0.10;;;;;;;;;;5017336;28;20051;-83
2023/07/01 00:43:35;;;;;;;0.10;0.10;;;;;;;;;;5007313;28;20039;-83
2023/07/01 00:46:01;;;;;;;0.20;0.20;;;;;;;;;;5014808;28;20074;-83
2023/07/01 00:48:28;;;;;;;0.10;0.10;;;;;;;;;;5034250;28;20130;-82
2023/07/01 00:50:55;;;;;;;0.10;0.10;;;;;;;;;;5015196;28;20058;-82
2023/07/01 00:53:22;;;;;;;0.10;0.10;;;;;;;;;;5016867;28;20134;-83
2023/07/01 00:55:48;;;;;;;0.17;0.17;;;;;;;;;;5018479;28;20054;-83
2023/07/01 02:29:27;;;;;;;0.95;0.52;;;;;;;;;;5229803;23;20145;-83
2023/07/01 02:32:32;;;;;;;0.45;0.32;;;;;;;;;;5021645;28;20108;-80
2023/07/01 02:35:30;;;;;;;0.10;0.10;;;;;;;;;;5017985;28;20058;-83
2023/07/01 02:38:14;;;;;;;0.13;0.13;;;;;;;;;;5015216;28;20054;-84
2023/07/01 02:41:16;;;;;;;0.20;0.20;;;;;;;;;;5014568;28;20145;-82
2023/07/01 02:44:21;;;;;;;0.10;0.10;;;;;;;;;;5002274;28;20058;-80
2023/07/01 02:47:29;;;;;;;0.10;0.10;;;;;;;;;;5022416;28;20077;-81
2023/07/01 02:50:24;;;;;;;0.15;0.15;;;;;;;;;;5012397;28;20050;-83
2023/07/01 02:53:37;;;;;;;0.13;0.13;;;;;;;;;;5007642;28;20142;-82
2023/07/01 02:56:39;;;;;;;0.30;0.28;;;;;;;;;;5008140;28;20038;-83
2023/07/01 02:59:31;;;;;;;0.10;0.10;;;;;;;;;;5009393;28;20136;-81
2023/07/01 03:02:24;;;;;;;0.13;0.13;;;;;;;;;;5011021;28;20054;-81
2023/07/01 03:05:34;;;;;;;0.10;0.10;;;;;;;;;;5008352;28;20065;-82
2023/07/01 03:08:48;;;;;;;0.28;0.28;;;;;;;;;;5020161;28;20118;-81
2023/07/01 03:11:43;;;;;;;0.20;0.20;;;;;;;;;;5006095;28;20072;-80
2023/07/01 03:14:39;;;;;;;0.32;0.20;;;;;;;;;;5008482;28;20113;-83
2023/07/01 03:17:42;;;;;;;0.10;0.10;;;;;;;;;;5006754;28;20058;-81
2023/07/01 03:21:00;;;;;;;0.10;0.10;;;;;;;;;;4992743;28;20046;-82
2023/07/01 03:23:53;;;;;;;0.20;0.20;;;;;;;;;;5006737;28;20059;-81
2023/07/01 03:27:11;;;;;;;0.25;0.25;;;;;;;;;;5026807;28;20059;-82
2023/07/01 03:30:06;;;;;;;0.63;0.22;;;;;;;;;;5004664;28;21124;-81
2023/07/01 03:36:54;;;;;;;0.10;0.10;;;;;;;;;;5035805;28;20054;-81
2023/07/01 03:40:11;;;;;;;0.10;0.10;;;;;;;;;;5032812;28;20052;-82
2023/07/01 03:43:54;;;;;;;0.10;0.10;;;;;;;;;;4986802;28;20046;-83
2023/07/01 03:50:09;;;;;;;0.10;0.10;;;;;;;;;;5032447;28;20058;-81
2023/07/01 03:53:31;;;;;;;0.88;0.40;;;;;;;;;;5027824;28;20041;-81
2023/07/01 03:56:24;;;;;;;0.10;0.10;;;;;;;;;;5033031;28;20064;-82
2023/07/01 03:59:45;;;;;;;0.22;0.20;;;;;;;;;;5047707;28;20061;-81
2023/07/01 04:02:37;;;;;;;0.10;0.10;;;;;;;;;;5020778;28;20207;-83
2023/07/01 04:06:21;;;;;;;0.22;0.22;;;;;;;;;;5038167;28;20161;-82
2023/07/01 04:09:29;;;;;;;0.32;0.32;;;;;;;;;;5009542;28;20064;-82
2023/07/01 04:12:39;;;;;;;0.20;0.20;;;;;;;;;;4995454;28;20059;-81
2023/07/01 04:15:52;;;;;;;0.17;0.17;;;;;;;;;;4976140;28;20507;-82
2023/07/01 04:18:48;;;;;;;0.15;0.15;;;;;;;;;;5002741;28;20542;-82
2023/07/01 04:22:11;;;;;;;0.10;0.10;;;;;;;;;;4973117;28;20043;-81
2023/07/01 04:25:13;;;;;;;0.10;0.10;;;;;;;;;;4985142;28;20145;-81
2023/07/01 04:31:56;;;;;;;0.15;0.15;;;;;;;;;;5005822;28;20062;-83
2023/07/01 04:34:57;;;;;;;0.25;0.20;;;;;;;;;;4993829;28;20047;-84
2023/07/01 04:38:16;;;;;;;0.85;0.43;;;;;;;;;;4996971;28;20059;-83
2023/07/01 04:41:28;;;;;;;0.20;0.20;;;;;;;;;;4978549;28;20158;-84
2023/07/01 04:44:55;;;;;;;0.38;0.38;;;;;;;;;;4984362;28;20066;-85
2023/07/01 04:47:53;;;;;;;0.20;0.20;;;;;;;;;;4979004;28;20065;-84
2023/07/01 04:51:04;;;;;;;0.30;0.28;;;;;;;;;;4974339;28;20051;-81
2023/07/01 04:54:00;;;;;;;1.17;1.08;;;;;;;;;;4986135;28;20059;-82
2023/07/01 04:57:26;;;;;;;1.05;0.43;;;;;;;;;;5023671;28;20124;-82
2023/07/01 05:00:22;;;;;;;0.40;0.30;;;;;;;;;;5001047;28;20122;-83
2023/07/01 05:03:41;;;;;;;1.00;0.73;;;;;;;;;;5016499;28;20034;-82
2023/07/01 05:06:36;;;;;;;0.13;0.13;;;;;;;;;;5024668;28;20065;-82
2023/07/01 05:10:09;;;;;;;0.10;0.10;;;;;;;;;;5020865;28;20061;-80
2023/07/01 05:13:28;;;;;;;0.20;0.20;;;;;;;;;;5027788;28;20128;-83
2023/07/01 05:16:42;;;;;;;0.55;0.40;;;;;;;;;;5028926;28;20928;-84
2023/07/01 05:19:35;;;;;;;0.10;0.10;;;;;;;;;;5035098;28;20054;-81
2023/07/01 05:22:31;;;;;;;0.10;0.10;;;;;;;;;;4953810;28;20107;-82
2023/07/01 05:25:46;;;;;;;0.10;0.10;;;;;;;;;;4959684;28;20054;-81
2023/07/01 05:28:57;;;;;;;1.42;0.55;;;;;;;;;;4959869;28;20028;-84
2023/07/01 05:32:00;;;;;;;0.25;0.25;;;;;;;;;;4955264;28;20113;-82
2023/07/01 05:35:03;;;;;;;0.20;0.20;;;;;;;;;;4967468;28;20685;-80
2023/07/01 05:38:13;;;;;;;0.10;0.10;;;;;;;;;;4965112;28;20096;-82
2023/07/01 05:41:31;;;;;;;0.10;0.10;;;;;;;;;;4970584;28;20137;-81
2023/07/01 05:44:53;;;;;;;0.10;0.10;;;;;;;;;;4965602;28;20110;-81
2023/07/01 05:48:06;;;;;;;0.10;0.10;;;;;;;;;;4966188;28;20085;-80
2023/07/01 05:51:33;;;;;;;0.10;0.10;;;;;;;;;;4970686;28;20062;-81
2023/07/01 05:54:32;;;;;;;0.10;0.10;;;;;;;;;;4973733;28;20055;-82
2023/07/01 05:57:42;;;;;;;0.32;0.28;;;;;;;;;;4960057;28;20065;-81
2023/07/01 06:00:46;;;;;;;0.10;0.10;;;;;;;;;;5019155;28;20111;-81
2023/07/01 06:03:40;;;;;;;0.20;0.20;;;;;;;;;;5027761;28;20061;-82
2023/07/01 06:06:37;;;;;;;0.45;0.30;;;;;;;;;;5002545;28;20092;-80
2023/07/01 06:09:39;;;;;;;0.55;0.43;;;;;;;;;;5013859;28;20111;-80
2023/07/01 06:12:32;;;;;;;0.20;0.20;;;;;;;;;;5020445;28;20065;-81
2023/07/01 06:15:23;;;;;;;0.38;0.38;;;;;;;;;;5019580;28;20136;-83
2023/07/01 06:18:24;;;;;;;0.25;0.20;;;;;;;;;;4994032;28;20527;-81
2023/07/01 06:21:21;;;;;;;1.55;1.35;;;;;;;;;;4977386;28;20050;-81
2023/07/01 07:20:09;;;;;;;0.20;0.20;;;;;;;;;;5027533;28;20102;-79
2023/07/01 07:34:08;;;;;;;0.15;0.15;;;;;;;;;;4915132;28;20115;-79
2023/07/01 07:37:20;;;;;;;0.50;0.50;;;;;;;;;;4902814;28;20059;-79
2023/07/01 07:44:01;;;;;;;0.20;0.20;;;;;;;;;;4974382;28;22886;-80
2023/07/01 07:51:30;;;;;;;0.13;0.13;;;;;;;;;;4992507;28;20114;-78
2023/07/01 07:55:06;;;;;;;0.30;0.30;;;;;;;;;;4932253;28;20053;-79
2023/07/01 07:58:20;;;;;;;0.68;0.28;;;;;;;;;;5028286;28;20519;-79
2023/07/01 08:01:42;;;;;;;1.10;0.32;;;;;;;;;;4999700;28;20045;-78
2023/07/01 08:05:05;;;;;;;0.10;0.10;;;;;;;;;;5007080;28;20046;-77
2023/07/01 08:08:38;;;;;;;0.55;0.30;;;;;;;;;;4949731;28;20143;-77
2023/07/01 08:11:50;;;;;;;0.15;0.15;;;;;;;;;;4938460;28;20129;-77
2023/07/01 08:15:27;;;;;;;1.30;0.55;;;;;;;;;;4939903;28;20067;-77
2023/07/01 08:18:57;;;;;;;0.20;0.20;;;;;;;;;;4872746;29;20073;-77
2023/07/01 08:22:33;;;;;;;0.10;0.10;;;;;;;;;;4872996;29;20545;-77
2023/07/01 08:25:37;;;;;;;0.10;0.10;;;;;;;;;;4872644;29;20054;-77
2023/07/01 08:29:03;;;;;;;0.20;0.20;;;;;;;;;;4848180;29;20071;-77
2023/07/01 08:32:12;;;;;;;0.30;0.30;;;;;;;;;;4862277;29;20062;-78
2023/07/01 08:35:39;;;;;;;0.10;0.10;;;;;;;;;;4864895;29;20057;-77
2023/07/01 08:39:12;;;;;;;0.10;0.10;;;;;;;;;;4835093;29;20057;-77
2023/07/01 08:42:11;;;;;;;0.10;0.10;;;;;;;;;;4851351;29;20057;-77
2023/07/01 08:45:25;;;;;;;0.20;0.20;;;;;;;;;;4890989;28;20087;-77
2023/07/01 08:48:41;;;;;;;0.20;0.20;;;;;;;;;;4964049;28;20035;-77
2023/07/01 08:51:51;;;;;;;0.10;0.10;;;;;;;;;;4946974;28;20059;-77
2023/07/01 08:55:17;;;;;;;0.20;0.20;;;;;;;;;;4967383;28;20033;-77
2023/07/01 08:58:15;;;;;;;0.40;0.40;;;;;;;;;;5037673;28;20498;-77
2023/07/01 09:01:30;;;;;;;0.10;0.10;;;;;;;;;;5032457;28;20038;-76
2023/07/01 09:04:30;;;;;;;0.10;0.10;;;;;;;;;;4971429;28;20156;-77
2023/07/01 09:10:58;;;;;;;0.20;0.20;;;;;;;;;;4963233;28;20051;-77
2023/07/01 09:13:26;;;;;;;0.10;0.10;;;;;;;;;;4978183;28;20051;-78
2023/07/01 09:15:52;;;;;;;0.20;0.20;;;;;;;;;;4977700;28;20059;-78
2023/07/01 09:18:23;;;;;;;0.10;0.10;;;;;;;;;;4980771;28;20073;-76
2023/07/01 09:20:50;;;;;;;0.20;0.20;;;;;;;;;;4981162;28;20074;-77
2023/07/01 09:23:26;;;;;;;0.20;0.20;;;;;;;;;;4990842;28;20057;-78
2023/07/01 09:26:02;;;;;;;0.10;0.10;;;;;;;;;;4977088;28;20035;-78
2023/07/01 09:28:31;;;;;;;0.52;0.43;;;;;;;;;;4994931;28;20131;-77
2023/07/01 09:31:00;;;;;;;0.30;0.30;;;;;;;;;;4988717;28;20606;-77
2023/07/01 09:33:27;;;;;;;0.25;0.22;;;;;;;;;;4993623;28;20057;-79
2023/07/01 09:35:57;;;;;;;0.30;0.22;;;;;;;;;;4979014;28;20150;-78
2023/07/01 09:38:24;;;;;;;0.15;0.15;;;;;;;;;;4989074;28;20058;-78
2023/07/01 09:44:18;;;;;;;0.22;0.22;;;;;;;;;;5054772;28;20041;-77
2023/07/01 09:46:50;;;;;;;0.30;0.30;;;;;;;;;;5039587;28;20092;-79
2023/07/01 10:10:17;;;;;;;0.10;0.10;;;;;;;;;;5063020;28;20053;-77
2023/07/01 10:12:45;;;;;;;0.28;0.28;;;;;;;;;;5026769;28;20049;-77
2023/07/01 10:15:12;;;;;;;1.90;1.25;;;;;;;;;;5051401;28;20076;-77
2023/07/01 10:17:47;;;;;;;0.10;0.10;;;;;;;;;;5048746;28;20080;-77
2023/07/01 10:20:27;;;;;;;0.10;0.10;;;;;;;;;;5049679;28;20464;-77
2023/07/01 10:22:55;;;;;;;0.55;0.55;;;;;;;;;;5034620;28;20085;-77
2023/07/01 10:25:30;;;;;;;0.20;0.20;;;;;;;;;;5045044;28;20057;-77
2023/07/01 10:27:59;;;;;;;0.10;0.10;;;;;;;;;;5051767;28;20487;-77
2023/07/01 10:30:26;;;;;;;0.63;0.30;;;;;;;;;;5056505;28;20060;-77
2023/07/01 10:32:52;;;;;;;0.10;0.10;;;;;;;;;;5059327;28;20135;-77
2023/07/01 10:35:19;;;;;;;0.20;0.20;;;;;;;;;;5031894;28;20533;-77
2023/07/01 10:38:11;;;;;;;1.08;0.57;;;;;;;;;;5053785;28;20056;-77
2023/07/01 10:40:42;;;;;;;0.15;0.15;;;;;;;;;;5048466;28;20616;-77
2023/07/01 10:43:35;;;;;;;0.52;0.50;;;;;;;;;;5044399;28;20141;-76
2023/07/01 10:46:07;;;;;;;0.22;0.22;;;;;;;;;;5034412;28;20156;-77
2023/07/01 10:48:35;;;;;;;0.15;0.15;;;;;;;;;;5052614;28;20057;-76
2023/07/01 10:51:08;;;;;;;0.45;0.30;;;;;;;;;;5051955;28;20053;-76
2023/07/01 10:53:53;;;;;;;0.52;0.47;;;;;;;;;;5051836;28;20513;-76
2023/07/01 10:56:20;;;;;;;0.47;0.30;;;;;;;;;;5034576;28;20053;-77
2023/07/01 10:59:06;;;;;;;0.20;0.20;;;;;;;;;;5053389;28;20057;-77
2023/07/01 11:01:41;;;;;;;0.20;0.20;;;;;;;;;;5032442;28;20790;-77
2023/07/01 11:04:07;;;;;;;0.20;0.20;;;;;;;;;;5064783;28;20079;-76
2023/07/01 11:06:47;;;;;;;0.35;0.32;;;;;;;;;;5036472;28;20057;-76
2023/07/01 11:09:14;;;;;;;0.57;0.30;;;;;;;;;;5054502;28;20073;-76
2023/07/01 11:11:43;;;;;;;0.13;0.13;;;;;;;;;;5057484;28;20049;-77
2023/07/01 11:14:11;;;;;;;0.20;0.20;;;;;;;;;;5045948;28;20086;-76
2023/07/01 11:16:38;;;;;;;0.10;0.10;;;;;;;;;;5044788;28;20045;-77
2023/07/01 11:19:08;;;;;;;0.10;0.10;;;;;;;;;;5054613;28;20064;-76
2023/07/01 11:21:36;;;;;;;0.17;0.17;;;;;;;;;;5054303;28;20059;-77
2023/07/01 11:24:04;;;;;;;0.13;0.13;;;;;;;;;;5050517;28;20406;-77
2023/07/01 11:26:31;;;;;;;0.10;0.10;;;;;;;;;;5046810;28;20056;-76
2023/07/01 11:28:58;;;;;;;0.20;0.20;;;;;;;;;;5047952;28;20057;-78
2023/07/01 11:31:25;;;;;;;0.22;0.22;;;;;;;;;;5046691;28;20092;-76
2023/07/01 11:33:53;;;;;;;0.15;0.15;;;;;;;;;;5048804;28;20188;-77
2023/07/01 11:36:40;;;;;;;0.35;0.25;;;;;;;;;;5052290;28;20045;-77
2023/07/01 11:39:13;;;;;;;0.35;0.10;;;;;;;;;;5045349;28;20091;-76
2023/07/01 11:41:41;;;;;;;0.10;0.10;;;;;;;;;;5059377;28;20088;-76
2023/07/01 11:44:09;;;;;;;0.10;0.10;;;;;;;;;;5053539;28;20870;-76
2023/07/01 11:46:37;;;;;;;1.33;0.50;;;;;;;;;;5054943;28;21309;-77
2023/07/01 11:49:22;;;;;;;0.22;0.22;;;;;;;;;;5047374;28;20054;-77
2023/07/01 11:51:50;;;;;;;0.22;0.22;;;;;;;;;;5052986;28;20505;-76
2023/07/01 11:54:18;;;;;;;0.20;0.20;;;;;;;;;;5045836;28;20570;-77
2023/07/01 11:56:45;;;;;;;0.30;0.25;;;;;;;;;;5032931;28;20077;-76
2023/07/01 11:59:27;;;;;;;0.20;0.20;;;;;;;;;;5051277;28;20084;-76
2023/07/01 12:01:54;;;;;;;0.20;0.20;;;;;;;;;;5065918;28;20061;-76
2023/07/01 12:04:20;;;;;;;0.10;0.10;;;;;;;;;;5047819;28;20654;-75
2023/07/01 12:06:47;;;;;;;0.20;0.20;;;;;;;;;;5033584;28;20106;-74
2023/07/01 12:09:27;;;;;;;0.20;0.20;;;;;;;;;;5050101;28;20045;-75
2023/07/01 12:11:54;;;;;;;0.20;0.20;;;;;;;;;;5054226;28;20052;-76
2023/07/01 12:14:22;;;;;;;0.20;0.20;;;;;;;;;;5032152;28;20501;-75
2023/07/01 12:16:49;;;;;;;0.28;0.28;;;;;;;;;;5046748;28;20205;-75
2023/07/01 12:19:16;;;;;;;0.20;0.20;;;;;;;;;;5036512;28;20141;-75
2023/07/01 12:21:43;;;;;;;0.32;0.30;;;;;;;;;;5052315;28;20053;-75
2023/07/01 12:24:18;;;;;;;0.20;0.20;;;;;;;;;;5028237;28;20046;-74
2023/07/01 12:26:45;;;;;;;0.55;0.55;;;;;;;;;;5046327;28;20061;-74
2023/07/01 12:29:11;;;;;;;0.30;0.30;;;;;;;;;;5059764;28;20132;-75
2023/07/01 12:45:09;;;;;;;0.20;0.20;;;;;;;;;;5033225;28;19921;-74
2023/07/01 12:47:38;;;;;;;5.57;0.52;;;;;;;;;;5043185;28;20049;-75
2023/07/01 12:50:07;;;;;;;0.10;0.10;;;;;;;;;;5061961;28;20521;-76
2023/07/01 12:52:34;;;;;;;0.45;0.45;;;;;;;;;;5052849;28;20410;-75
2023/07/01 12:55:00;;;;;;;0.52;0.35;;;;;;;;;;5045955;28;20057;-76
2023/07/01 12:57:30;;;;;;;1.00;0.80;;;;;;;;;;5049210;28;20100;-76
2023/07/01 12:59:56;;;;;;;0.53;0.50;;;;;;;;;;5055832;28;20053;-75
2023/07/01 13:02:23;;;;;;;0.20;0.20;;;;;;;;;;5046445;28;20057;-75
2023/07/01 13:04:58;;;;;;;0.20;0.20;;;;;;;;;;5036562;28;20512;-76
2023/07/01 13:07:25;;;;;;;0.20;0.20;;;;;;;;;;5029558;28;20060;-76
2023/07/01 13:09:52;;;;;;;0.52;0.52;;;;;;;;;;5060909;28;20635;-74
2023/07/01 13:12:20;;;;;;;0.30;0.30;;;;;;;;;;5047714;28;20081;-76
2023/07/01 13:14:47;;;;;;;0.15;0.15;;;;;;;;;;5059505;28;20104;-75
2023/07/01 13:17:13;;;;;;;0.43;0.40;;;;;;;;;;5034870;28;20080;-75
2023/07/01 13:19:40;;;;;;;0.10;0.10;;;;;;;;;;5027941;28;20144;-76
2023/07/01 13:22:06;;;;;;;0.20;0.20;;;;;;;;;;5032336;28;20064;-77
2023/07/01 13:24:41;;;;;;;0.25;0.25;;;;;;;;;;5065183;28;20171;-76
2023/07/01 13:27:10;;;;;;;0.20;0.20;;;;;;;;;;5062725;28;20060;-77
2023/07/01 13:29:36;;;;;;;0.43;0.40;;;;;;;;;;5064053;28;20088;-77
2023/07/01 13:32:06;;;;;;;0.30;0.30;;;;;;;;;;5058371;28;20057;-74
2023/07/01 13:34:43;;;;;;;0.20;0.20;;;;;;;;;;5062923;28;20105;-76
2023/07/01 13:37:12;;;;;;;0.32;0.30;;;;;;;;;;5045549;28;20048;-76
2023/07/01 13:39:43;;;;;;;0.85;0.40;;;;;;;;;;5040056;28;20077;-76
2023/07/01 13:42:10;;;;;;;0.20;0.20;;;;;;;;;;5056580;28;20058;-76
2023/07/01 13:44:40;;;;;;;0.20;0.20;;;;;;;;;;5056779;28;20108;-76
2023/07/01 13:47:06;;;;;;;;;;;;;;;;;;5030705;28;20067;-76
2023/07/01 13:49:33;;;;;;;0.43;0.38;;;;;;;;;;5026061;28;45254;-74
2023/07/01 13:52:00;;;;;;;0.20;0.20;;;;;;;;;;5032762;28;20057;-76
2023/07/01 13:54:27;;;;;;;0.20;0.20;;;;;;;;;;5064683;28;20548;-76
2023/07/01 13:56:58;;;;;;;0.10;0.10;;;;;;;;;;5048949;28;20716;-76
2023/07/01 13:59:25;;;;;;;0.25;0.25;;;;;;;;;;5041643;28;20045;-76
2023/07/01 14:01:52;;;;;;;0.45;0.30;;;;;;;;;;5036897;28;21302;-76
2023/07/01 14:04:20;;;;;;;0.28;0.28;;;;;;;;;;5033268;28;20053;-76
2023/07/01 14:06:47;;;;;;;0.10;0.10;;;;;;;;;;5054146;28;20136;-76
2023/07/01 14:09:21;;;;;;;0.20;0.20;;;;;;;;;;5048230;28;20119;-73
2023/07/01 14:11:47;;;;;;;0.10;0.10;;;;;;;;;;5045914;28;20107;-76
2023/07/01 14:14:19;;;;;;;0.10;0.10;;;;;;;;;;5030642;28;20544;-75
2023/07/01 14:16:49;;;;;;;0.10;0.10;;;;;;;;;;5045378;28;20092;-75
2023/07/01 14:19:16;;;;;;;0.40;0.40;;;;;;;;;;5059945;28;20831;-76
2023/07/01 14:21:46;;;;;;;0.20;0.20;;;;;;;;;;5039007;28;20049;-76
2023/07/01 14:24:19;;;;;;;0.20;0.20;;;;;;;;;;5047062;28;20056;-76
2023/07/01 14:26:48;;;;;;;0.20;0.20;;;;;;;;;;5042036;28;20104;-76
2023/07/01 14:29:18;;;;;;;0.35;0.32;;;;;;;;;;5046252;28;20124;-75
2023/07/01 14:31:45;;;;;;;0.40;0.38;;;;;;;;;;5031725;28;20057;-76
2023/07/01 14:34:12;;;;;;;0.10;0.10;;;;;;;;;;5028616;28;20437;-76
2023/07/01 14:36:42;;;;;;;0.20;0.20;;;;;;;;;;5055643;28;20665;-75
2023/07/01 14:39:09;;;;;;;0.30;0.30;;;;;;;;;;5036057;28;20058;-74
2023/07/01 14:41:37;;;;;;;0.20;0.20;;;;;;;;;;5026886;28;20058;-76
2023/07/01 14:44:05;;;;;;;0.15;0.15;;;;;;;;;;5056261;28;20107;-75
2023/07/01 14:46:32;;;;;;;0.30;0.30;;;;;;;;;;5039595;28;20845;-75
2023/07/01 14:49:00;;;;;;;0.20;0.20;;;;;;;;;;5061969;28;20132;-75
2023/07/01 14:51:26;;;;;;;0.20;0.20;;;;;;;;;;5042080;28;20060;-76
2023/07/01 14:53:54;;;;;;;0.20;0.20;;;;;;;;;;5045260;28;20049;-77
2023/07/01 14:56:22;;;;;;;0.10;0.10;;;;;;;;;;5045493;28;20600;-75
2023/07/01 14:58:48;;;;;;;0.20;0.20;;;;;;;;;;5041236;28;20060;-75
2023/07/01 15:01:16;;;;;;;0.30;0.20;;;;;;;;;;5057567;28;20137;-75
2023/07/01 15:03:42;;;;;;;0.25;0.20;;;;;;;;;;5052922;28;20053;-75
2023/07/01 15:06:13;;;;;;;0.32;0.30;;;;;;;;;;5050770;28;21003;-75
2023/07/01 15:08:39;;;;;;;0.55;0.38;;;;;;;;;;5050418;28;20236;-75
2023/07/01 15:11:06;;;;;;;0.10;0.10;;;;;;;;;;5058133;28;20064;-75
2023/07/01 15:13:33;;;;;;;0.43;0.30;;;;;;;;;;5057703;28;20141;-75
2023/07/01 15:16:00;;;;;;;0.30;0.30;;;;;;;;;;5045204;28;20053;-76
2023/07/01 15:18:27;;;;;;;0.10;0.10;;;;;;;;;;5049582;28;20087;-75
2023/07/01 15:20:53;;;;;;;0.40;0.40;;;;;;;;;;5059966;28;20056;-76
2023/07/01 15:23:20;;;;;;;0.38;0.30;;;;;;;;;;5053795;28;20592;-75
2023/07/01 15:25:46;;;;;;;0.35;0.30;;;;;;;;;;5061283;28;20144;-75
2023/07/01 15:28:13;;;;;;;0.45;0.40;;;;;;;;;;5056441;28;20456;-75
2023/07/01 15:30:39;;;;;;;0.45;0.45;;;;;;;;;;5066767;28;20137;-75
2023/07/01 15:33:06;;;;;;;0.10;0.10;;;;;;;;;;5067009;28;20161;-76
2023/07/01 15:35:32;;;;;;;0.20;0.20;;;;;;;;;;5063377;28;20519;-75
2023/07/01 15:37:59;;;;;;;0.20;0.20;;;;;;;;;;5047214;28;20056;-75
2023/07/01 15:40:28;;;;;;;0.30;0.30;;;;;;;;;;5059209;28;20049;-75
2023/07/01 15:42:55;;;;;;;0.20;0.20;;;;;;;;;;5067216;28;20060;-77
2023/07/01 15:45:21;;;;;;;0.10;0.10;;;;;;;;;;5055040;28;20053;-75
2023/07/01 15:47:48;;;;;;;0.10;0.10;;;;;;;;;;5054071;28;20194;-75
2023/07/01 15:50:15;;;;;;;0.40;0.30;;;;;;;;;;5040613;28;20053;-75
2023/07/01 15:52:42;;;;;;;0.20;0.20;;;;;;;;;;5056674;28;20190;-75
2023/07/01 15:55:10;;;;;;;0.10;0.10;;;;;;;;;;5064733;28;20536;-75
2023/07/01 15:57:36;;;;;;;0.20;0.20;;;;;;;;;;5067764;28;20500;-74
2023/07/01 16:00:04;;;;;;;0.20;0.20;;;;;;;;;;5066278;28;20053;-75
2023/07/01 16:02:30;;;;;;;0.20;0.20;;;;;;;;;;5033513;28;20493;-75
2023/07/01 16:04:58;;;;;;;0.32;0.32;;;;;;;;;;5047823;28;20062;-75
2023/07/01 16:07:31;;;;;;;0.30;0.22;;;;;;;;;;5052740;28;20083;-75
2023/07/01 16:10:02;;;;;;;0.20;0.20;;;;;;;;;;5063803;28;20053;-75
2023/07/01 16:12:32;;;;;;;0.20;0.20;;;;;;;;;;5049721;28;20053;-75
2023/07/01 16:15:00;;;;;;;0.43;0.30;;;;;;;;;;5059563;28;20176;-75
2023/07/01 16:17:30;;;;;;;1.38;0.40;;;;;;;;;;5035388;28;20444;-75
2023/07/01 16:19:57;;;;;;;;;;;;;;;;;;5029826;28;20088;-74
2023/07/01 16:22:24;;;;;;;0.20;0.20;;;;;;;;;;5049640;28;45942;-74
2023/07/01 16:24:56;;;;;;;0.20;0.20;;;;;;;;;;5049507;28;20054;-75
2023/07/01 16:27:23;;;;;;;0.20;0.20;;;;;;;;;;5060973;28;20053;-75
2023/07/01 16:29:54;;;;;;;0.20;0.20;;;;;;;;;;5047185;28;20053;-77
2023/07/01 16:32:22;;;;;;;0.28;0.28;;;;;;;;;;5050802;28;20053;-76
2023/07/01 16:34:50;;;;;;;0.20;0.20;;;;;;;;;;5052589;28;20106;-78
2023/07/01 16:37:17;;;;;;;0.20;0.20;;;;;;;;;;5063785;28;20148;-77
2023/07/01 16:39:55;;;;;;;0.20;0.20;;;;;;;;;;5066687;28;20084;-77
2023/07/01 16:42:22;;;;;;;0.10;0.10;;;;;;;;;;5058630;28;20578;-76
2023/07/01 16:44:52;;;;;;;0.20;0.20;;;;;;;;;;5057057;28;20107;-76
2023/07/01 16:47:20;;;;;;;0.17;0.15;;;;;;;;;;5029706;28;20060;-76
2023/07/01 16:49:46;;;;;;;0.52;0.40;;;;;;;;;;5033009;28;20140;-76
2023/07/01 16:52:24;;;;;;;1.75;0.38;;;;;;;;;;5050057;28;20053;-75
2023/07/01 16:54:50;;;;;;;0.45;0.35;;;;;;;;;;5046897;28;20502;-75
2023/07/01 16:57:17;;;;;;;0.30;0.30;;;;;;;;;;5046451;28;20060;-75
2023/07/01 16:59:47;;;;;;;0.43;0.35;;;;;;;;;;5065632;28;20147;-76
2023/07/01 17:02:32;;;;;;;0.30;0.22;;;;;;;;;;5057712;28;20053;-75
2023/07/01 17:05:12;;;;;;;0.40;0.40;;;;;;;;;;5046167;28;20057;-76
2023/07/01 17:07:39;;;;;;;0.20;0.20;;;;;;;;;;5054256;28;20053;-76
2023/07/01 17:10:10;;;;;;;0.20;0.20;;;;;;;;;;5050723;28;20543;-75
2023/07/01 17:12:36;;;;;;;0.40;0.38;;;;;;;;;;5035630;28;20084;-75
2023/07/01 17:15:07;;;;;;;0.20;0.20;;;;;;;;;;5064430;28;20048;-77
2023/07/01 17:17:33;;;;;;;;;;;;;;;;;;5064494;28;20565;-76
2023/07/01 17:20:00;;;;;;;0.47;0.40;;;;;;;;;;5047356;28;48426;-75
2023/07/01 17:22:27;;;;;;;0.22;0.22;;;;;;;;;;5053235;28;20148;-76
2023/07/01 17:24:54;;;;;;;0.20;0.20;;;;;;;;;;5059945;28;20876;-75
2023/07/01 17:27:21;;;;;;;0.10;0.10;;;;;;;;;;5037111;28;20136;-78
2023/07/01 17:29:48;;;;;;;0.20;0.20;;;;;;;;;;5062966;28;20098;-76
2023/07/01 17:32:15;;;;;;;0.20;0.20;;;;;;;;;;5058534;28;20049;-76
2023/07/01 17:34:44;;;;;;;0.20;0.20;;;;;;;;;;5066114;28;20828;-76
2023/07/01 17:37:10;;;;;;;0.20;0.20;;;;;;;;;;5055886;28;20048;-76
2023/07/01 17:39:37;;;;;;;0.20;0.20;;;;;;;;;;5060419;28;20119;-75
2023/07/01 17:42:03;;;;;;;0.10;0.10;;;;;;;;;;5060630;28;20150;-76
2023/07/01 17:44:30;;;;;;;0.30;0.30;;;;;;;;;;5046213;28;20747;-76
2023/07/01 17:46:57;;;;;;;0.30;0.30;;;;;;;;;;5048817;28;20057;-75
2023/07/01 17:49:23;;;;;;;0.10;0.10;;;;;;;;;;5065491;28;20148;-74
2023/07/01 17:51:50;;;;;;;0.22;0.22;;;;;;;;;;5055006;28;20521;-77
2023/07/01 17:54:16;;;;;;;0.10;0.10;;;;;;;;;;5052608;28;20085;-75
2023/07/01 17:56:43;;;;;;;0.20;0.20;;;;;;;;;;5058712;28;20151;-78
2023/07/01 17:59:09;;;;;;;0.20;0.20;;;;;;;;;;5065019;28;20090;-78
2023/07/01 18:01:39;;;;;;;0.20;0.20;;;;;;;;;;5048341;28;20209;-75
2023/07/01 18:04:05;;;;;;;0.35;0.35;;;;;;;;;;5046667;28;20545;-78
2023/07/01 18:06:31;;;;;;;0.52;0.30;;;;;;;;;;5049750;28;20510;-76
2023/07/01 18:08:58;;;;;;;0.20;0.20;;;;;;;;;;5046641;28;20080;-75
2023/07/01 18:11:24;;;;;;;0.10;0.10;;;;;;;;;;5049102;28;20046;-77
2023/07/01 18:13:51;;;;;;;0.20;0.20;;;;;;;;;;5064763;28;20578;-75
2023/07/01 18:16:17;;;;;;;0.10;0.10;;;;;;;;;;5047339;28;20095;-75
2023/07/01 18:18:44;;;;;;;0.10;0.10;;;;;;;;;;5045284;28;20144;-75
2023/07/01 18:21:10;;;;;;;0.30;0.20;;;;;;;;;;5045708;28;20132;-77
2023/07/01 18:23:36;;;;;;;0.43;0.32;;;;;;;;;;5027869;28;20054;-76
2023/07/01 18:26:03;;;;;;;0.10;0.10;;;;;;;;;;5028802;28;20053;-75
2023/07/01 18:28:30;;;;;;;0.38;0.25;;;;;;;;;;5059021;28;20180;-75
2023/07/01 18:30:56;;;;;;;0.10;0.10;;;;;;;;;;5039627;28;20548;-76
2023/07/01 18:33:27;;;;;;;0.20;0.20;;;;;;;;;;5040528;28;20054;-76
2023/07/01 18:36:12;;;;;;;0.10;0.10;;;;;;;;;;5046330;28;20053;-76
2023/07/01 18:38:50;;;;;;;0.20;0.20;;;;;;;;;;5034244;28;20667;-76
2023/07/01 18:41:38;;;;;;;0.30;0.30;;;;;;;;;;5049887;28;20053;-76
2023/07/01 18:44:06;;;;;;;0.10;0.10;;;;;;;;;;5037045;28;20064;-76
2023/07/01 18:46:36;;;;;;;0.20;0.20;;;;;;;;;;5066338;28;20060;-76
2023/07/01 18:53:15;;;;;;;0.10;0.10;;;;;;;;;;5072166;28;20045;-76
2023/07/01 18:55:43;;;;;;;0.28;0.28;;;;;;;;;;5053240;28;20053;-77
2023/07/01 18:58:13;;;;;;;0.20;0.20;;;;;;;;;;5051602;28;20038;-77
2023/07/01 19:01:06;;;;;;;0.10;0.10;;;;;;;;;;5034837;28;20501;-77
2023/07/01 19:03:46;;;;;;;0.10;0.10;;;;;;;;;;5059761;28;20722;-77
2023/07/01 19:06:20;;;;;;;0.10;0.10;;;;;;;;;;5061385;28;20152;-77
2023/07/01 19:08:49;;;;;;;0.10;0.10;;;;;;;;;;5051848;28;20049;-76
2023/07/01 19:11:17;;;;;;;0.20;0.20;;;;;;;;;;5061468;28;20063;-76
2023/07/01 19:13:46;;;;;;;0.32;0.30;;;;;;;;;;5078675;28;20093;-76
2023/07/01 19:16:27;;;;;;;0.10;0.10;;;;;;;;;;5070707;28;20128;-74
2023/07/01 19:19:04;;;;;;;0.10;0.10;;;;;;;;;;5077857;28;20052;-76
2023/07/01 19:21:36;;;;;;;0.25;0.25;;;;;;;;;;5063892;28;20057;-74
2023/07/01 19:24:21;;;;;;;0.10;0.10;;;;;;;;;;5055747;28;20053;-77
2023/07/01 19:26:50;;;;;;;0.10;0.10;;;;;;;;;;5040934;28;20159;-75
2023/07/01 19:29:25;;;;;;;0.10;0.10;;;;;;;;;;5065102;28;20099;-76
2023/07/01 19:32:02;;;;;;;0.10;0.10;;;;;;;;;;5054855;28;20052;-77
2023/07/01 19:34:49;;;;;;;0.13;0.13;;;;;;;;;;5078194;28;20056;-77
2023/07/01 19:37:17;;;;;;;0.40;0.30;;;;;;;;;;5053039;28;20559;-76
2023/07/01 19:39:46;;;;;;;0.10;0.10;;;;;;;;;;5059813;28;20053;-77
2023/07/01 19:42:38;;;;;;;0.20;0.20;;;;;;;;;;5063766;28;20122;-75
2023/07/01 19:45:14;;;;;;;0.10;0.10;;;;;;;;;;5055533;28;20059;-77